sensor_id;sensor_type;location;lat;lon;timestamp;pressure;altitude;pressure_sealevel;temperature;humidity
64189;BME280;50493;50.970;10.082;2023-04-26T00:01:11;99331.47;;;7.19;50.34
64189;BME280;50493;50.970;10.082;2023-04-26T00:03:38;99322.03;;;7.12;50.64
64189;BME280;50493;50.970;10.082;2023-04-26T00:06:04;99330.69;;;7.08;50.94
64189;BME280;50493;50.970;10.082;2023-04-26T00:08:36;99331.66;;;6.99;50.77
64189;BME280;50493;50.970;10.082;2023-04-26T00:11:01;99331.72;;;6.88;51.16
64189;BME280;50493;50.970;10.082;2023-04-26T00:13:26;99334.28;;;6.91;51.00
64189;BME280;50493;50.970;10.082;2023-04-26T00:15:53;99343.91;;;6.82;51.13
64189;BME280;50493;50.970;10.082;2023-04-26T00:18:18;99342.22;;;6.71;51.71
64189;BME280;50493;50.970;10.082;2023-04-26T00:20:44;99344.00;;;6.63;51.57
64189;BME280;50493;50.970;10.082;2023-04-26T00:23:09;99348.34;;;6.64;51.41
64189;BME280;50493;50.970;10.082;2023-04-26T00:25:35;99344.91;;;6.62;51.50
64189;BME280;50493;50.970;10.082;2023-04-26T00:28:00;99344.91;;;6.57;51.63
64189;BME280;50493;50.970;10.082;2023-04-26T00:30:26;99347.50;;;6.62;51.50
64189;BME280;50493;50.970;10.082;2023-04-26T00:32:52;99344.88;;;6.60;51.30
64189;BME280;50493;50.970;10.082;2023-04-26T00:35:18;99349.25;;;6.57;51.31
64189;BME280;50493;50.970;10.082;2023-04-26T00:37:44;99349.28;;;6.49;51.67
64189;BME280;50493;50.970;10.082;2023-04-26T00:40:11;99341.53;;;6.48;51.81
64189;BME280;50493;50.970;10.082;2023-04-26T00:42:37;99349.38;;;6.35;51.93
64189;BME280;50493;50.970;10.082;2023-04-26T00:45:03;99348.56;;;6.25;52.08
64189;BME280;50493;50.970;10.082;2023-04-26T00:47:29;99344.25;;;6.20;52.12
64189;BME280;50493;50.970;10.082;2023-04-26T00:49:56;99349.44;;;6.23;51.95
64189;BME280;50493;50.970;10.082;2023-04-26T00:52:23;99347.72;;;6.19;52.05
64189;BME280;50493;50.970;10.082;2023-04-26T00:54:49;99348.63;;;6.15;51.88
64189;BME280;50493;50.970;10.082;2023-04-26T00:57:15;99346.94;;;6.03;52.20
64189;BME280;50493;50.970;10.082;2023-04-26T00:59:40;99348.66;;;6.01;52.17
64189;BME280;50493;50.970;10.082;2023-04-26T01:02:06;99353.00;;;5.97;52.24
64189;BME280;50493;50.970;10.082;2023-04-26T01:04:31;99346.09;;;5.95;52.18
64189;BME280;50493;50.970;10.082;2023-04-26T01:06:59;99346.97;;;5.92;52.30
64189;BME280;50493;50.970;10.082;2023-04-26T01:09:24;99357.34;;;5.86;52.57
64189;BME280;50493;50.970;10.082;2023-04-26T01:11:50;99358.22;;;5.88;52.70
64189;BME280;50493;50.970;10.082;2023-04-26T01:14:16;99358.22;;;5.88;52.39
64189;BME280;50493;50.970;10.082;2023-04-26T01:16:42;99359.09;;;5.87;52.06
64189;BME280;50493;50.970;10.082;2023-04-26T01:19:12;99359.97;;;5.76;52.28
64189;BME280;50493;50.970;10.082;2023-04-26T01:21:38;99356.53;;;5.71;52.51
64189;BME280;50493;50.970;10.082;2023-04-26T01:24:06;99361.72;;;5.68;52.39
64189;BME280;50493;50.970;10.082;2023-04-26T01:26:33;99359.97;;;5.67;52.38
64189;BME280;50493;50.970;10.082;2023-04-26T01:28:58;99362.59;;;5.64;52.44
64189;BME280;50493;50.970;10.082;2023-04-26T01:31:24;99359.13;;;5.65;52.44
64189;BME280;50493;50.970;10.082;2023-04-26T01:33:49;99356.56;;;5.62;52.34
64189;BME280;50493;50.970;10.082;2023-04-26T01:36:15;99367.78;;;5.61;52.36
64189;BME280;50493;50.970;10.082;2023-04-26T01:38:40;99364.34;;;5.61;52.20
64189;BME280;50493;50.970;10.082;2023-04-26T01:41:07;99365.22;;;5.52;52.47
64189;BME280;50493;50.970;10.082;2023-04-26T01:43:32;99360.88;;;5.55;52.28
64189;BME280;50493;50.970;10.082;2023-04-26T01:45:57;99359.16;;;5.54;52.55
64189;BME280;50493;50.970;10.082;2023-04-26T01:48:23;99354.84;;;5.49;52.33
64189;BME280;50493;50.970;10.082;2023-04-26T01:50:48;99354.81;;;5.42;52.46
64189;BME280;50493;50.970;10.082;2023-04-26T01:53:13;99357.41;;;5.38;52.44
64189;BME280;50493;50.970;10.082;2023-04-26T01:55:39;99353.09;;;5.32;52.71
64189;BME280;50493;50.970;10.082;2023-04-26T01:58:05;99354.81;;;5.30;52.78
64189;BME280;50493;50.970;10.082;2023-04-26T02:00:31;99356.56;;;5.28;52.65
64189;BME280;50493;50.970;10.082;2023-04-26T02:02:56;99358.28;;;5.26;52.88
64189;BME280;50493;50.970;10.082;2023-04-26T02:05:22;99353.97;;;5.25;52.54
64189;BME280;50493;50.970;10.082;2023-04-26T02:07:48;99353.97;;;5.25;52.54
64189;BME280;50493;50.970;10.082;2023-04-26T02:10:13;99351.34;;;5.26;52.32
64189;BME280;50493;50.970;10.082;2023-04-26T02:12:39;99358.28;;;5.17;52.71
64189;BME280;50493;50.970;10.082;2023-04-26T02:15:07;99354.81;;;5.21;52.36
64189;BME280;50493;50.970;10.082;2023-04-26T02:17:33;99363.47;;;5.20;52.22
64189;BME280;50493;50.970;10.082;2023-04-26T02:19:58;99354.84;;;5.18;52.27
64189;BME280;50493;50.970;10.082;2023-04-26T02:22:24;99359.16;;;5.06;52.63
64189;BME280;50493;50.970;10.082;2023-04-26T02:24:50;99356.53;;;4.91;53.27
64189;BME280;50493;50.970;10.082;2023-04-26T02:27:16;99354.81;;;4.90;53.02
64189;BME280;50493;50.970;10.082;2023-04-26T02:29:42;99359.13;;;4.92;52.82
64189;BME280;50493;50.970;10.082;2023-04-26T02:32:08;99359.13;;;4.88;52.96
64189;BME280;50493;50.970;10.082;2023-04-26T02:34:34;99361.75;;;4.85;52.89
64189;BME280;50493;50.970;10.082;2023-04-26T02:37:00;99365.16;;;4.78;53.12
64189;BME280;50493;50.970;10.082;2023-04-26T02:39:25;99361.69;;;4.72;53.10
64189;BME280;50493;50.970;10.082;2023-04-26T02:41:51;99368.59;;;4.66;53.39
64189;BME280;50493;50.970;10.082;2023-04-26T02:44:16;99365.13;;;4.65;53.33
64189;BME280;50493;50.970;10.082;2023-04-26T02:46:41;99360.84;;;4.67;53.08
64189;BME280;50493;50.970;10.082;2023-04-26T02:49:08;99363.44;;;4.67;52.95
64189;BME280;50493;50.970;10.082;2023-04-26T02:51:33;99367.72;;;4.59;53.30
64189;BME280;50493;50.970;10.082;2023-04-26T02:53:59;99366.00;;;4.59;53.16
64189;BME280;50493;50.970;10.082;2023-04-26T02:56:24;99368.59;;;4.58;53.23
64189;BME280;50493;50.970;10.082;2023-04-26T02:58:50;99372.00;;;4.51;53.32
64189;BME280;50493;50.970;10.082;2023-04-26T03:01:15;99364.22;;;4.45;53.25
64189;BME280;50493;50.970;10.082;2023-04-26T03:03:42;99366.81;;;4.48;53.37
64189;BME280;50493;50.970;10.082;2023-04-26T03:06:08;99372.00;;;4.45;53.06
64189;BME280;50493;50.970;10.082;2023-04-26T03:08:34;99371.97;;;4.37;53.17
64189;BME280;50493;50.970;10.082;2023-04-26T03:11:00;99368.53;;;4.36;53.29
64189;BME280;50493;50.970;10.082;2023-04-26T03:13:26;99366.75;;;4.29;53.50
64189;BME280;50493;50.970;10.082;2023-04-26T03:15:51;99365.06;;;4.34;53.18
64189;BME280;50493;50.970;10.082;2023-04-26T03:18:18;99367.63;;;4.31;53.14
64189;BME280;50493;50.970;10.082;2023-04-26T03:20:44;99373.66;;;4.25;53.29
64189;BME280;50493;50.970;10.082;2023-04-26T03:23:11;99376.22;;;4.21;53.27
64189;BME280;50493;50.970;10.082;2023-04-26T03:25:36;99372.78;;;4.17;53.37
64189;BME280;50493;50.970;10.082;2023-04-26T03:28:02;99372.78;;;4.17;53.44
64189;BME280;50493;50.970;10.082;2023-04-26T03:30:28;99365.84;;;4.16;53.62
64189;BME280;50493;50.970;10.082;2023-04-26T03:32:53;99367.59;;;4.17;53.05
64189;BME280;50493;50.970;10.082;2023-04-26T03:35:19;99371.88;;;4.17;53.32
64189;BME280;50493;50.970;10.082;2023-04-26T03:37:45;99369.28;;;4.12;53.74
64189;BME280;50493;50.970;10.082;2023-04-26T03:40:12;99366.72;;;4.14;53.00
64189;BME280;50493;50.970;10.082;2023-04-26T03:42:37;99368.41;;;4.05;53.40
64189;BME280;50493;50.970;10.082;2023-04-26T03:45:03;99377.91;;;4.06;53.15
64189;BME280;50493;50.970;10.082;2023-04-26T03:47:29;99380.44;;;4.03;53.32
64189;BME280;50493;50.970;10.082;2023-04-26T03:49:54;99368.41;;;4.05;53.02
64189;BME280;50493;50.970;10.082;2023-04-26T03:52:20;99367.56;;;4.08;52.84
64189;BME280;50493;50.970;10.082;2023-04-26T03:54:45;99375.25;;;3.99;53.30
64189;BME280;50493;50.970;10.082;2023-04-26T03:57:12;99376.09;;;3.96;53.12
64189;BME280;50493;50.970;10.082;2023-04-26T03:59:37;99370.09;;;3.94;53.25
64189;BME280;50493;50.970;10.082;2023-04-26T04:02:02;99373.53;;;3.93;53.37
64189;BME280;50493;50.970;10.082;2023-04-26T04:04:28;99376.94;;;3.87;53.40
64189;BME280;50493;50.970;10.082;2023-04-26T04:06:53;99376.91;;;3.86;53.48
64189;BME280;50493;50.970;10.082;2023-04-26T04:09:19;99380.38;;;3.83;53.56
64189;BME280;50493;50.970;10.082;2023-04-26T04:11:44;99384.66;;;3.83;53.54
64189;BME280;50493;50.970;10.082;2023-04-26T04:14:11;99381.22;;;3.82;53.48
64189;BME280;50493;50.970;10.082;2023-04-26T04:16:36;99383.81;;;3.84;53.05
64189;BME280;50493;50.970;10.082;2023-04-26T04:19:01;99384.66;;;3.78;53.26
64189;BME280;50493;50.970;10.082;2023-04-26T04:21:27;99385.44;;;3.69;53.54
64189;BME280;50493;50.970;10.082;2023-04-26T04:23:52;99385.50;;;3.76;52.88
64189;BME280;50493;50.970;10.082;2023-04-26T04:26:18;99381.22;;;3.84;53.09
64189;BME280;50493;50.970;10.082;2023-04-26T04:28:45;99382.19;;;4.01;52.38
64189;BME280;50493;50.970;10.082;2023-04-26T04:31:12;99390.84;;;4.13;51.71
64189;BME280;50493;50.970;10.082;2023-04-26T04:33:38;99389.09;;;4.05;52.16
64189;BME280;50493;50.970;10.082;2023-04-26T04:36:03;99395.97;;;4.03;52.09
64189;BME280;50493;50.970;10.082;2023-04-26T04:38:30;99388.44;;;4.64;50.47
64189;BME280;50493;50.970;10.082;2023-04-26T04:40:56;99381.63;;;5.24;48.34
64189;BME280;50493;50.970;10.082;2023-04-26T04:43:22;99380.75;;;5.70;47.25
64189;BME280;50493;50.970;10.082;2023-04-26T04:45:47;99384.09;;;6.06;46.13
64189;BME280;50493;50.970;10.082;2023-04-26T04:48:14;99384.78;;;6.50;44.79
64189;BME280;50493;50.970;10.082;2023-04-26T04:50:40;99381.91;;;6.97;43.73
64189;BME280;50493;50.970;10.082;2023-04-26T04:53:06;99384.28;;;7.26;42.48
64189;BME280;50493;50.970;10.082;2023-04-26T04:55:33;99388.19;;;7.76;42.06
64189;BME280;50493;50.970;10.082;2023-04-26T04:57:58;99389.75;;;7.96;40.81
64189;BME280;50493;50.970;10.082;2023-04-26T05:00:23;99384.97;;;8.31;40.40
64189;BME280;50493;50.970;10.082;2023-04-26T05:02:49;99393.47;;;8.46;39.70
64189;BME280;50493;50.970;10.082;2023-04-26T05:05:16;99387.44;;;9.07;38.62
64189;BME280;50493;50.970;10.082;2023-04-26T05:07:41;99391.09;;;9.50;38.25
64189;BME280;50493;50.970;10.082;2023-04-26T05:10:07;99390.03;;;9.61;38.00
64189;BME280;50493;50.970;10.082;2023-04-26T05:12:32;99396.06;;;9.65;37.46
64189;BME280;50493;50.970;10.082;2023-04-26T05:14:59;99404.22;;;9.95;36.78
64189;BME280;50493;50.970;10.082;2023-04-26T05:17:25;99407.16;;;10.67;36.11
64189;BME280;50493;50.970;10.082;2023-04-26T05:19:50;99400.50;;;11.29;34.82
64189;BME280;50493;50.970;10.082;2023-04-26T05:22:17;99397.06;;;12.29;33.86
64189;BME280;50493;50.970;10.082;2023-04-26T05:24:45;99407.22;;;9.72;37.66
64189;BME280;50493;50.970;10.082;2023-04-26T05:27:11;99403.56;;;9.82;38.37
64189;BME280;50493;50.970;10.082;2023-04-26T05:29:36;99412.63;;;10.09;37.95
64189;BME280;50493;50.970;10.082;2023-04-26T05:32:02;99413.53;;;10.54;37.37
64189;BME280;50493;50.970;10.082;2023-04-26T05:34:27;99418.13;;;10.83;36.13
64189;BME280;50493;50.970;10.082;2023-04-26T05:36:53;99422.84;;;11.06;35.96
64189;BME280;50493;50.970;10.082;2023-04-26T05:39:20;99420.38;;;11.74;34.61
64189;BME280;50493;50.970;10.082;2023-04-26T05:41:45;99418.56;;;12.09;34.01
64189;BME280;50493;50.970;10.082;2023-04-26T05:44:11;99420.19;;;12.44;32.09
64189;BME280;50493;50.970;10.082;2023-04-26T05:46:37;99422.75;;;11.81;33.79
64189;BME280;50493;50.970;10.082;2023-04-26T05:49:02;99423.44;;;11.90;33.07
64189;BME280;50493;50.970;10.082;2023-04-26T05:51:28;99416.94;;;12.66;33.24
64189;BME280;50493;50.970;10.082;2023-04-26T05:53:53;99420.22;;;13.31;32.53
64189;BME280;50493;50.970;10.082;2023-04-26T05:56:19;99422.63;;;13.10;33.40
64189;BME280;50493;50.970;10.082;2023-04-26T05:58:45;99432.78;;;12.63;33.15
64189;BME280;50493;50.970;10.082;2023-04-26T06:01:11;99421.56;;;13.16;32.35
64189;BME280;50493;50.970;10.082;2023-04-26T06:03:37;99420.34;;;12.40;34.25
64189;BME280;50493;50.970;10.082;2023-04-26T06:06:03;99435.06;;;11.79;35.39
64189;BME280;50493;50.970;10.082;2023-04-26T06:08:29;99416.09;;;12.34;35.64
64189;BME280;50493;50.970;10.082;2023-04-26T06:10:54;99426.66;;;10.05;39.85
64189;BME280;50493;50.970;10.082;2023-04-26T06:13:21;99431.16;;;9.97;40.19
64189;BME280;50493;50.970;10.082;2023-04-26T06:15:47;99437.13;;;8.96;43.03
64189;BME280;50493;50.970;10.082;2023-04-26T06:18:12;99432.22;;;10.76;38.90
64189;BME280;50493;50.970;10.082;2023-04-26T06:20:37;99419.56;;;13.24;34.84
64189;BME280;50493;50.970;10.082;2023-04-26T06:23:03;99426.72;;;13.19;33.77
64189;BME280;50493;50.970;10.082;2023-04-26T06:25:28;99424.09;;;13.46;34.00
64189;BME280;50493;50.970;10.082;2023-04-26T06:27:54;99431.31;;;13.66;30.78
64189;BME280;50493;50.970;10.082;2023-04-26T06:30:20;99419.34;;;16.31;30.16
64189;BME280;50493;50.970;10.082;2023-04-26T06:32:46;99433.69;;;15.19;27.93
64189;BME280;50493;50.970;10.082;2023-04-26T06:35:11;99441.41;;;13.78;29.58
64189;BME280;50493;50.970;10.082;2023-04-26T06:37:36;99439.09;;;12.24;31.88
64189;BME280;50493;50.970;10.082;2023-04-26T06:40:04;99438.03;;;11.28;33.76
64189;BME280;50493;50.970;10.082;2023-04-26T06:42:30;99419.94;;;12.54;32.14
64189;BME280;50493;50.970;10.082;2023-04-26T06:44:55;99438.56;;;11.42;33.41
64189;BME280;50493;50.970;10.082;2023-04-26T06:47:22;99440.00;;;12.23;33.38
64189;BME280;50493;50.970;10.082;2023-04-26T06:49:47;99439.28;;;11.11;34.56
64189;BME280;50493;50.970;10.082;2023-04-26T06:52:12;99437.41;;;12.22;34.20
64189;BME280;50493;50.970;10.082;2023-04-26T06:54:38;99431.22;;;12.56;32.24
64189;BME280;50493;50.970;10.082;2023-04-26T06:57:03;99429.66;;;12.19;32.59
64189;BME280;50493;50.970;10.082;2023-04-26T06:59:28;99447.03;;;11.90;33.34
64189;BME280;50493;50.970;10.082;2023-04-26T07:01:54;99440.69;;;11.64;33.54
64189;BME280;50493;50.970;10.082;2023-04-26T07:04:20;99452.91;;;10.87;35.48
64189;BME280;50493;50.970;10.082;2023-04-26T07:06:46;99452.34;;;10.72;35.31
64189;BME280;50493;50.970;10.082;2023-04-26T07:09:11;99445.94;;;11.64;33.84
64189;BME280;50493;50.970;10.082;2023-04-26T07:11:37;99446.66;;;10.52;35.95
64189;BME280;50493;50.970;10.082;2023-04-26T07:14:03;99448.72;;;11.19;35.11
64189;BME280;50493;50.970;10.082;2023-04-26T07:16:28;99453.88;;;9.92;37.02
64189;BME280;50493;50.970;10.082;2023-04-26T07:18:53;99453.44;;;10.17;36.87
64189;BME280;50493;50.970;10.082;2023-04-26T07:21:23;99449.72;;;9.82;37.52
64189;BME280;50493;50.970;10.082;2023-04-26T07:23:52;99452.47;;;9.72;37.79
64189;BME280;50493;50.970;10.082;2023-04-26T07:26:18;99450.72;;;10.21;37.20
64189;BME280;50493;50.970;10.082;2023-04-26T07:28:43;99449.56;;;11.21;34.95
64189;BME280;50493;50.970;10.082;2023-04-26T07:31:09;99453.81;;;11.25;35.78
64189;BME280;50493;50.970;10.082;2023-04-26T07:33:34;99455.06;;;10.68;36.07
64189;BME280;50493;50.970;10.082;2023-04-26T07:35:59;99462.50;;;10.45;36.64
64189;BME280;50493;50.970;10.082;2023-04-26T07:38:27;99457.25;;;9.47;38.75
64189;BME280;50493;50.970;10.082;2023-04-26T07:40:52;99455.00;;;10.69;36.42
64189;BME280;50493;50.970;10.082;2023-04-26T07:43:20;99453.56;;;9.59;38.51
64189;BME280;50493;50.970;10.082;2023-04-26T07:45:45;99463.28;;;8.88;40.46
64189;BME280;50493;50.970;10.082;2023-04-26T07:48:11;99457.22;;;9.49;39.06
64189;BME280;50493;50.970;10.082;2023-04-26T07:50:36;99461.31;;;8.37;41.02
64189;BME280;50493;50.970;10.082;2023-04-26T07:53:02;99453.56;;;10.09;38.49
64189;BME280;50493;50.970;10.082;2023-04-26T07:55:28;99448.22;;;12.09;32.87
64189;BME280;50493;50.970;10.082;2023-04-26T07:57:54;99463.44;;;10.84;35.83
64189;BME280;50493;50.970;10.082;2023-04-26T08:00:19;99465.47;;;10.71;37.29
64189;BME280;50493;50.970;10.082;2023-04-26T08:02:47;99462.94;;;11.07;36.49
64189;BME280;50493;50.970;10.082;2023-04-26T08:05:12;99469.47;;;9.45;39.91
64189;BME280;50493;50.970;10.082;2023-04-26T08:07:38;99472.41;;;8.53;42.08
64189;BME280;50493;50.970;10.082;2023-04-26T08:10:04;99470.78;;;8.44;42.46
64189;BME280;50493;50.970;10.082;2023-04-26T08:12:32;99473.94;;;9.37;40.11
64189;BME280;50493;50.970;10.082;2023-04-26T08:14:58;99463.16;;;10.08;38.74
64189;BME280;50493;50.970;10.082;2023-04-26T08:17:24;99454.16;;;11.47;34.61
64189;BME280;50493;50.970;10.082;2023-04-26T08:19:49;99448.09;;;12.15;34.59
64189;BME280;50493;50.970;10.082;2023-04-26T08:22:14;99445.41;;;12.17;34.72
64189;BME280;50493;50.970;10.082;2023-04-26T08:24:40;99451.25;;;10.82;37.09
64189;BME280;50493;50.970;10.082;2023-04-26T08:27:05;99450.84;;;9.67;39.67
64189;BME280;50493;50.970;10.082;2023-04-26T08:29:32;99457.13;;;8.95;41.19
64189;BME280;50493;50.970;10.082;2023-04-26T08:31:57;99459.97;;;8.78;41.70
64189;BME280;50493;50.970;10.082;2023-04-26T08:34:23;99463.72;;;8.54;42.41
64189;BME280;50493;50.970;10.082;2023-04-26T08:36:48;99460.19;;;8.60;42.40
64189;BME280;50493;50.970;10.082;2023-04-26T08:39:13;99463.44;;;8.77;42.18
64189;BME280;50493;50.970;10.082;2023-04-26T08:41:42;99458.84;;;9.56;40.15
64189;BME280;50493;50.970;10.082;2023-04-26T08:44:08;99455.00;;;10.69;38.36
64189;BME280;50493;50.970;10.082;2023-04-26T08:46:36;99449.19;;;12.38;34.87
64189;BME280;50493;50.970;10.082;2023-04-26T08:49:12;99446.47;;;13.03;33.56
64189;BME280;50493;50.970;10.082;2023-04-26T08:51:38;99448.56;;;12.91;33.45
64189;BME280;50493;50.970;10.082;2023-04-26T08:54:04;99445.97;;;11.23;36.36
64189;BME280;50493;50.970;10.082;2023-04-26T08:56:31;99452.84;;;10.47;38.29
64189;BME280;50493;50.970;10.082;2023-04-26T08:58:59;99459.78;;;10.03;39.04
64189;BME280;50493;50.970;10.082;2023-04-26T09:01:25;99457.63;;;9.75;40.07
64189;BME280;50493;50.970;10.082;2023-04-26T09:03:55;99460.09;;;10.33;38.93
64189;BME280;50493;50.970;10.082;2023-04-26T09:06:21;99457.72;;;9.71;39.51
64189;BME280;50493;50.970;10.082;2023-04-26T09:08:47;99460.00;;;9.91;39.79
64189;BME280;50493;50.970;10.082;2023-04-26T09:11:13;99449.97;;;11.38;34.55
64189;BME280;50493;50.970;10.082;2023-04-26T09:13:38;99442.22;;;13.27;33.31
64189;BME280;50493;50.970;10.082;2023-04-26T09:16:04;99442.81;;;14.39;26.33
64189;BME280;50493;50.970;10.082;2023-04-26T09:18:29;99440.56;;;12.96;33.50
64189;BME280;50493;50.970;10.082;2023-04-26T09:21:03;99444.69;;;11.41;37.02
64189;BME280;50493;50.970;10.082;2023-04-26T09:23:29;99447.75;;;11.23;36.27
64189;BME280;50493;50.970;10.082;2023-04-26T09:25:54;99445.84;;;10.50;38.24
64189;BME280;50493;50.970;10.082;2023-04-26T09:28:21;99445.06;;;10.44;38.32
64189;BME280;50493;50.970;10.082;2023-04-26T09:30:47;99454.84;;;10.33;38.95
64189;BME280;50493;50.970;10.082;2023-04-26T09:33:13;99454.09;;;10.28;38.50
64189;BME280;50493;50.970;10.082;2023-04-26T09:35:40;99450.47;;;10.79;37.76
64189;BME280;50493;50.970;10.082;2023-04-26T09:38:08;99448.41;;;10.53;37.92
64189;BME280;50493;50.970;10.082;2023-04-26T09:40:36;99453.13;;;10.77;37.92
64189;BME280;50493;50.970;10.082;2023-04-26T09:43:04;99443.09;;;11.72;35.53
64189;BME280;50493;50.970;10.082;2023-04-26T09:45:31;99439.25;;;11.49;36.19
64189;BME280;50493;50.970;10.082;2023-04-26T09:48:15;99428.59;;;12.86;33.49
64189;BME280;50493;50.970;10.082;2023-04-26T09:50:41;99433.94;;;13.66;32.80
64189;BME280;50493;50.970;10.082;2023-04-26T09:53:09;99418.69;;;14.75;30.38
64189;BME280;50493;50.970;10.082;2023-04-26T09:55:35;99416.69;;;13.32;32.69
64189;BME280;50493;50.970;10.082;2023-04-26T09:58:07;99417.13;;;13.72;30.90
64189;BME280;50493;50.970;10.082;2023-04-26T10:00:32;99415.56;;;12.53;34.28
64189;BME280;50493;50.970;10.082;2023-04-26T10:02:58;99417.72;;;12.38;35.12
64189;BME280;50493;50.970;10.082;2023-04-26T10:05:24;99427.53;;;12.00;35.37
64189;BME280;50493;50.970;10.082;2023-04-26T10:07:50;99415.94;;;13.00;33.15
64189;BME280;50493;50.970;10.082;2023-04-26T10:10:18;99424.47;;;11.82;35.61
64189;BME280;50493;50.970;10.082;2023-04-26T10:12:44;99426.81;;;11.59;36.28
64189;BME280;50493;50.970;10.082;2023-04-26T10:15:10;99426.78;;;11.60;36.37
64189;BME280;50493;50.970;10.082;2023-04-26T10:17:36;99421.72;;;11.89;35.62
64189;BME280;50493;50.970;10.082;2023-04-26T10:20:03;99429.81;;;11.07;37.43
64189;BME280;50493;50.970;10.082;2023-04-26T10:22:33;99435.34;;;10.92;37.61
64189;BME280;50493;50.970;10.082;2023-04-26T10:25:00;99440.97;;;10.73;38.07
64189;BME280;50493;50.970;10.082;2023-04-26T10:27:50;99434.31;;;11.01;37.47
64189;BME280;50493;50.970;10.082;2023-04-26T10:30:18;99431.91;;;10.91;37.90
64189;BME280;50493;50.970;10.082;2023-04-26T10:33:14;99435.63;;;11.19;36.21
64189;BME280;50493;50.970;10.082;2023-04-26T10:35:58;99427.31;;;11.01;37.69
64189;BME280;50493;50.970;10.082;2023-04-26T10:38:24;99430.94;;;11.33;37.31
64189;BME280;50493;50.970;10.082;2023-04-26T10:40:50;99426.72;;;11.62;36.90
64189;BME280;50493;50.970;10.082;2023-04-26T10:43:38;99427.59;;;11.62;37.07
64189;BME280;50493;50.970;10.082;2023-04-26T10:46:34;99426.03;;;12.23;35.93
64189;BME280;50493;50.970;10.082;2023-04-26T10:49:12;99430.44;;;11.89;36.66
64189;BME280;50493;50.970;10.082;2023-04-26T10:51:37;99428.56;;;12.26;33.76
64189;BME280;50493;50.970;10.082;2023-04-26T10:54:03;99433.19;;;11.85;33.44
64189;BME280;50493;50.970;10.082;2023-04-26T10:56:50;99424.13;;;13.17;32.84
64189;BME280;50493;50.970;10.082;2023-04-26T10:59:21;99424.16;;;12.58;35.88
64189;BME280;50493;50.970;10.082;2023-04-26T11:01:46;99424.97;;;12.60;34.50
64189;BME280;50493;50.970;10.082;2023-04-26T11:04:12;99426.06;;;12.53;35.40
64189;BME280;50493;50.970;10.082;2023-04-26T11:06:47;99415.38;;;13.19;28.14
64189;BME280;50493;50.970;10.082;2023-04-26T11:09:32;99412.47;;;12.70;35.13
64189;BME280;50493;50.970;10.082;2023-04-26T11:11:58;99421.97;;;12.74;36.10
64189;BME280;50493;50.970;10.082;2023-04-26T11:14:25;99412.22;;;13.61;27.76
64189;BME280;50493;50.970;10.082;2023-04-26T11:16:50;99407.94;;;13.58;27.49
64189;BME280;50493;50.970;10.082;2023-04-26T11:19:16;99406.00;;;13.63;28.30
64189;BME280;50493;50.970;10.082;2023-04-26T11:21:41;99394.28;;;13.74;25.22
64189;BME280;50493;50.970;10.082;2023-04-26T11:24:06;99398.91;;;13.65;26.26
64189;BME280;50493;50.970;10.082;2023-04-26T11:26:32;99405.81;;;12.88;35.94
64189;BME280;50493;50.970;10.082;2023-04-26T11:28:59;99391.13;;;13.37;29.80
64189;BME280;50493;50.970;10.082;2023-04-26T11:31:29;99402.16;;;12.63;36.62
64189;BME280;50493;50.970;10.082;2023-04-26T11:34:00;99407.97;;;12.73;34.79
64189;BME280;50493;50.970;10.082;2023-04-26T11:36:27;99406.94;;;13.07;35.75
64189;BME280;50493;50.970;10.082;2023-04-26T11:38:54;99408.19;;;12.36;37.23
64189;BME280;50493;50.970;10.082;2023-04-26T11:41:21;99400.81;;;12.19;37.14
64189;BME280;50493;50.970;10.082;2023-04-26T11:43:47;99401.41;;;11.97;37.31
64189;BME280;50493;50.970;10.082;2023-04-26T11:46:12;99408.78;;;12.14;36.78
64189;BME280;50493;50.970;10.082;2023-04-26T11:48:39;99395.47;;;12.22;30.41
64189;BME280;50493;50.970;10.082;2023-04-26T11:51:05;99395.06;;;12.37;36.41
64189;BME280;50493;50.970;10.082;2023-04-26T11:53:34;99397.22;;;12.23;36.41
64189;BME280;50493;50.970;10.082;2023-04-26T11:56:00;99401.53;;;12.55;36.03
64189;BME280;50493;50.970;10.082;2023-04-26T11:58:25;99398.13;;;12.52;36.09
64189;BME280;50493;50.970;10.082;2023-04-26T12:00:54;99401.47;;;12.57;35.86
64189;BME280;50493;50.970;10.082;2023-04-26T12:03:20;99406.16;;;12.15;37.04
64189;BME280;50493;50.970;10.082;2023-04-26T12:05:52;99402.47;;;12.82;34.83
64189;BME280;50493;50.970;10.082;2023-04-26T12:08:22;99403.88;;;12.94;35.10
64189;BME280;50493;50.970;10.082;2023-04-26T12:10:48;99400.00;;;13.33;29.46
64189;BME280;50493;50.970;10.082;2023-04-26T12:13:13;99398.31;;;13.57;31.86
64189;BME280;50493;50.970;10.082;2023-04-26T12:15:38;99401.34;;;13.20;35.74
64189;BME280;50493;50.970;10.082;2023-04-26T12:18:05;99400.22;;;13.27;28.60
64189;BME280;50493;50.970;10.082;2023-04-26T12:20:34;99402.72;;;12.73;33.69
64189;BME280;50493;50.970;10.082;2023-04-26T12:23:02;99402.19;;;12.32;38.02
64189;BME280;50493;50.970;10.082;2023-04-26T12:25:29;99391.19;;;12.80;36.43
64189;BME280;50493;50.970;10.082;2023-04-26T12:27:55;99392.34;;;13.27;35.45
64189;BME280;50493;50.970;10.082;2023-04-26T12:30:20;99388.84;;;13.53;35.05
64189;BME280;50493;50.970;10.082;2023-04-26T12:32:46;99389.97;;;13.19;35.69
64189;BME280;50493;50.970;10.082;2023-04-26T12:35:12;99395.19;;;12.92;36.16
64189;BME280;50493;50.970;10.082;2023-04-26T12:37:37;99397.34;;;13.08;35.38
64189;BME280;50493;50.970;10.082;2023-04-26T12:40:05;99393.16;;;12.72;36.37
64189;BME280;50493;50.970;10.082;2023-04-26T12:42:31;99392.09;;;12.49;36.64
64189;BME280;50493;50.970;10.082;2023-04-26T12:44:57;99393.13;;;12.42;36.13
64189;BME280;50493;50.970;10.082;2023-04-26T12:47:22;99393.06;;;12.45;36.39
64189;BME280;50493;50.970;10.082;2023-04-26T12:49:47;99387.09;;;12.40;36.24
64189;BME280;50493;50.970;10.082;2023-04-26T12:52:13;99397.28;;;12.51;36.44